Main page
METAR-TAF:

METAR-TAF

Airports :

Tiree Airport

Tiree, Scotland

latitude: 56-30N, longitude: 006-53W, elevation: 12 m

Current weather observation

The report was made 24 minutes ago, at 20:20 UTC
Wind 15 kt from the North
Temperature 5°C
Humidity 65%
Pressure 1009 hPa
Visibility 10 km or more

METAR: EGPU 052020Z AUTO 35015KT 9999 NCD 05/M01 Q1009

Time: 21:44 (20:44 UTC)

Forecast

The report was made 6 hours and 47 minutes ago, at 13:57 UTC
Forecast valid from 05 at 15 UTC to 05 at 18 UTC
Wind 15 kt from the North/Northwest
Visibility 10 km or more
Scattered clouds at a height of 3000 ft
Temporary
from 05 at 15 UTC to 05 at 18 UTC
Visibility: 6000 m
rain showers
Probability 30% :
Temporary
from 05 at 15 UTC to 05 at 18 UTC
Wind 18 kt from the North/Northwest with gusts up to 28 kt
Visibility: 4000 m
Broken clouds at a height of 1200 ft, Cumulonimbus.
rain showers, small hail or snow pellets

TAF: EGPU 051357Z 0515/0518 33015KT 9999 SCT030 TEMPO 0515/0518 6000 SHRA PROB30 TEMPO 0515/0518 34018G28KT 4000 SHRAGS BKN012CB

Weather observations and forecasts of more than 4000 airports (METAR and TAF reports).

The available stations are represented by yellow and red dots on the map.

Hover mouse over dot to see the name of the station.

Then click to see weather observations and forecasts.

To change the map : click on the green buttons with a black cross to zoom in, on the green button with a dash to zoom out, or on the green arrows for adjacent maps.


METAR-TAF: